Hovedside
METAR-TAF:

METAR-TAF

Lufthavner :

Chehalis, Washington, USA

breddegrad: 46-40-37N, lengdegrad: 122-58-58W, høyde over havet: 54 m

Gjeldene værobservasjon

Denne rapporten ble laget for 20 minutter siden, klokken 16:55 UTC
Vind 5 kt fra Nord
Temperatur 13°C
Luftfuktighet 58%
Trykk 1022 hPa
Sikt: 16.1 km
Skyfri himmel

METAR: KCLS 091655Z AUTO 01005KT 10SM CLR 13/05 A3017 RMK AO2

Tid: 10:15 (17:15 UTC)


TAF: fraværende

Værobservasjoner og værvarsel for over 4000 flyplasser (METAR- og TAF-rapporter).

Tilgjengelige stasjoner er representert av de røde og gule prikkene på kartet.

Hold musepekeren over prikken for å se navnet på stasjonen.

Klikk så for å se værobservasjoner og -varsler.

For å forandre kartet kan du klikke på den grønne knappen med svart kryss for å zoome inn, på den grønne knappen med strek for å zoome ut, eller på de grønne pilene for å se tilstøtende kart.


METAR-TAF: